sensor_id;sensor_type;location;lat;lon;timestamp;pressure;altitude;pressure_sealevel;temperature;humidity
39449;BME280;25151;45.566;9.382;2023-10-08T00:00:10;100575.81;;;25.92;61.31
39449;BME280;25151;45.566;9.382;2023-10-08T00:02:55;100579.88;;;25.91;61.32
39449;BME280;25151;45.566;9.382;2023-10-08T00:05:44;100574.25;;;25.91;61.45
39449;BME280;25151;45.566;9.382;2023-10-08T00:08:18;100581.00;;;25.94;60.97
39449;BME280;25151;45.566;9.382;2023-10-08T00:10:48;100573.91;;;25.89;61.12
39449;BME280;25151;45.566;9.382;2023-10-08T00:13:19;100571.09;;;25.89;61.45
39449;BME280;25151;45.566;9.382;2023-10-08T00:15:54;100586.97;;;25.96;60.92
39449;BME280;25151;45.566;9.382;2023-10-08T00:18:27;100579.56;;;25.89;61.36
39449;BME280;25151;45.566;9.382;2023-10-08T00:20:55;100578.00;;;25.88;61.13
39449;BME280;25151;45.566;9.382;2023-10-08T00:23:45;100579.75;;;25.95;61.43
39449;BME280;25151;45.566;9.382;2023-10-08T00:26:34;100571.72;;;25.93;61.40
39449;BME280;25151;45.566;9.382;2023-10-08T00:29:15;100566.38;;;25.86;61.06
39449;BME280;25151;45.566;9.382;2023-10-08T00:31:46;100578.19;;;25.94;61.35
39449;BME280;25151;45.566;9.382;2023-10-08T00:34:21;100577.38;;;25.93;61.35
39449;BME280;25151;45.566;9.382;2023-10-08T00:36:57;100566.38;;;25.86;61.19
39449;BME280;25151;45.566;9.382;2023-10-08T00:39:31;100572.97;;;25.92;61.57
39449;BME280;25151;45.566;9.382;2023-10-08T00:42:03;100554.31;;;25.86;61.08
39449;BME280;25151;45.566;9.382;2023-10-08T00:44:38;100564.50;;;25.92;61.40
39449;BME280;25151;45.566;9.382;2023-10-08T00:47:16;100561.69;;;25.92;61.21
39449;BME280;25151;45.566;9.382;2023-10-08T00:49:48;100546.28;;;25.84;61.53
39449;BME280;25151;45.566;9.382;2023-10-08T00:52:33;100557.28;;;25.91;61.32
39449;BME280;25151;45.566;9.382;2023-10-08T00:55:28;100556.97;;;25.89;61.14
39449;BME280;25151;45.566;9.382;2023-10-08T00:57:59;100549.75;;;25.88;61.47
39449;BME280;25151;45.566;9.382;2023-10-08T01:00:35;100531.84;;;25.82;61.30
39449;BME280;25151;45.566;9.382;2023-10-08T01:03:10;100546.91;;;25.88;61.63
39449;BME280;25151;45.566;9.382;2023-10-08T01:05:49;100538.28;;;25.83;61.58
39449;BME280;25151;45.566;9.382;2023-10-08T01:08:22;100533.09;;;25.81;61.51
39449;BME280;25151;45.566;9.382;2023-10-08T01:11:24;100544.09;;;25.88;61.34
39449;BME280;25151;45.566;9.382;2023-10-08T01:14:25;100540.47;;;25.88;61.48
39449;BME280;25151;45.566;9.382;2023-10-08T01:16:59;100528.41;;;25.87;61.16
39449;BME280;25151;45.566;9.382;2023-10-08T01:19:33;100525.56;;;25.87;61.25
39449;BME280;25151;45.566;9.382;2023-10-08T01:22:10;100511.75;;;25.80;61.42
39449;BME280;25151;45.566;9.382;2023-10-08T01:24:52;100513.78;;;25.80;61.66
39449;BME280;25151;45.566;9.382;2023-10-08T01:27:22;100516.28;;;25.78;61.63
39449;BME280;25151;45.566;9.382;2023-10-08T01:29:55;100517.09;;;25.78;61.40
39449;BME280;25151;45.566;9.382;2023-10-08T01:32:35;100510.19;;;25.79;61.25
39449;BME280;25151;45.566;9.382;2023-10-08T01:35:05;100520.56;;;25.82;61.58
39449;BME280;25151;45.566;9.382;2023-10-08T01:37:51;100517.25;;;25.84;61.38
39449;BME280;25151;45.566;9.382;2023-10-08T01:40:29;100520.56;;;25.82;61.41
39449;BME280;25151;45.566;9.382;2023-10-08T01:43:03;100513.31;;;25.81;61.33
39449;BME280;25151;45.566;9.382;2023-10-08T01:45:35;100507.00;;;25.77;61.22
39449;BME280;25151;45.566;9.382;2023-10-08T01:48:16;100505.44;;;25.76;61.33
39449;BME280;25151;45.566;9.382;2023-10-08T01:50:52;100503.09;;;25.74;61.32
39449;BME280;25151;45.566;9.382;2023-10-08T01:53:27;100499.78;;;25.76;61.42
39449;BME280;25151;45.566;9.382;2023-10-08T01:55:57;100494.94;;;25.76;61.29
39449;BME280;25151;45.566;9.382;2023-10-08T01:58:30;100503.88;;;25.75;61.64
39449;BME280;25151;45.566;9.382;2023-10-08T02:01:08;100501.50;;;25.73;61.47
39449;BME280;25151;45.566;9.382;2023-10-08T02:03:41;100498.22;;;25.75;61.25
39449;BME280;25151;45.566;9.382;2023-10-08T02:06:14;100486.59;;;25.73;61.48
39449;BME280;25151;45.566;9.382;2023-10-08T02:08:47;100500.44;;;25.80;61.31
39449;BME280;25151;45.566;9.382;2023-10-08T02:11:14;100485.38;;;25.74;61.70
39449;BME280;25151;45.566;9.382;2023-10-08T02:13:49;100485.03;;;25.72;61.30
39449;BME280;25151;45.566;9.382;2023-10-08T02:16:19;100492.25;;;25.73;61.64
39449;BME280;25151;45.566;9.382;2023-10-08T02:18:54;100504.53;;;25.79;61.59
39449;BME280;25151;45.566;9.382;2023-10-08T02:21:27;100505.31;;;25.80;61.47
39449;BME280;25151;45.566;9.382;2023-10-08T02:24:04;100486.31;;;25.71;61.57
39449;BME280;25151;45.566;9.382;2023-10-08T02:26:37;100490.69;;;25.72;61.35
39449;BME280;25151;45.566;9.382;2023-10-08T02:29:10;100507.47;;;25.75;61.57
39449;BME280;25151;45.566;9.382;2023-10-08T02:31:43;100503.75;;;25.79;61.38
39449;BME280;25151;45.566;9.382;2023-10-08T02:34:14;100483.00;;;25.72;61.75
39449;BME280;25151;45.566;9.382;2023-10-08T02:36:51;100486.31;;;25.71;61.23
39449;BME280;25151;45.566;9.382;2023-10-08T02:39:28;100475.78;;;25.71;61.65
39449;BME280;25151;45.566;9.382;2023-10-08T02:42:04;100479.09;;;25.70;61.27
39449;BME280;25151;45.566;9.382;2023-10-08T02:44:39;100483.16;;;25.69;61.45
39449;BME280;25151;45.566;9.382;2023-10-08T02:47:12;100495.72;;;25.77;61.47
39449;BME280;25151;45.566;9.382;2023-10-08T02:49:47;100488.50;;;25.76;61.46
39449;BME280;25151;45.566;9.382;2023-10-08T02:52:22;100483.16;;;25.69;61.27
39449;BME280;25151;45.566;9.382;2023-10-08T02:54:55;100473.09;;;25.68;61.16
39449;BME280;25151;45.566;9.382;2023-10-08T02:57:32;100469.50;;;25.67;61.48
39449;BME280;25151;45.566;9.382;2023-10-08T03:00:07;100469.50;;;25.67;61.38
39449;BME280;25151;45.566;9.382;2023-10-08T03:02:44;100464.34;;;25.66;61.52
39449;BME280;25151;45.566;9.382;2023-10-08T03:05:17;100484.09;;;25.75;61.71
39449;BME280;25151;45.566;9.382;2023-10-08T03:07:48;100479.72;;;25.74;61.42
39449;BME280;25151;45.566;9.382;2023-10-08T03:10:24;100471.25;;;25.74;61.43
39449;BME280;25151;45.566;9.382;2023-10-08T03:13:00;100478.13;;;25.73;61.42
39449;BME280;25151;45.566;9.382;2023-10-08T03:15:43;100476.56;;;25.72;61.68
39449;BME280;25151;45.566;9.382;2023-10-08T03:18:26;100459.91;;;25.65;61.56
39449;BME280;25151;45.566;9.382;2023-10-08T03:21:07;100470.28;;;25.68;61.46
39449;BME280;25151;45.566;9.382;2023-10-08T03:24:11;100465.56;;;25.65;61.48
39449;BME280;25151;45.566;9.382;2023-10-08T03:26:43;100461.19;;;25.64;61.59
39449;BME280;25151;45.566;9.382;2023-10-08T03:29:16;100467.94;;;25.66;61.65
39449;BME280;25151;45.566;9.382;2023-10-08T03:31:49;100466.06;;;25.63;61.35
39449;BME280;25151;45.566;9.382;2023-10-08T03:34:21;100466.84;;;25.64;61.53
39449;BME280;25151;45.566;9.382;2023-10-08T03:36:58;100456.78;;;25.63;61.50
39449;BME280;25151;45.566;9.382;2023-10-08T03:39:39;100477.81;;;25.71;61.46
39449;BME280;25151;45.566;9.382;2023-10-08T03:42:29;100468.72;;;25.67;61.82
39449;BME280;25151;45.566;9.382;2023-10-08T03:45:01;100468.09;;;25.63;61.38
39449;BME280;25151;45.566;9.382;2023-10-08T03:47:44;100462.13;;;25.61;61.32
39449;BME280;25151;45.566;9.382;2023-10-08T03:50:27;100467.31;;;25.62;61.61
39449;BME280;25151;45.566;9.382;2023-10-08T03:53:02;100455.22;;;25.62;61.46
39449;BME280;25151;45.566;9.382;2023-10-08T03:55:35;100460.84;;;25.62;61.58
39449;BME280;25151;45.566;9.382;2023-10-08T03:58:08;100469.31;;;25.62;61.56
39449;BME280;25151;45.566;9.382;2023-10-08T04:00:43;100464.94;;;25.61;61.73
39449;BME280;25151;45.566;9.382;2023-10-08T04:03:15;100469.31;;;25.62;61.33
39449;BME280;25151;45.566;9.382;2023-10-08T04:06:09;100468.53;;;25.61;61.51
39449;BME280;25151;45.566;9.382;2023-10-08T04:08:52;100455.53;;;25.55;61.49
39449;BME280;25151;45.566;9.382;2023-10-08T04:11:41;100461.81;;;25.59;61.45
39449;BME280;25151;45.566;9.382;2023-10-08T04:14:27;100473.59;;;25.66;61.77
39449;BME280;25151;45.566;9.382;2023-10-08T04:16:59;100469.03;;;25.60;61.85
39449;BME280;25151;45.566;9.382;2023-10-08T04:19:30;100464.63;;;25.59;61.35
39449;BME280;25151;45.566;9.382;2023-10-08T04:22:08;100461.81;;;25.59;61.67
39449;BME280;25151;45.566;9.382;2023-10-08T04:24:45;100472.16;;;25.62;61.63
39449;BME280;25151;45.566;9.382;2023-10-08T04:27:21;100478.91;;;25.64;61.59
39449;BME280;25151;45.566;9.382;2023-10-08T04:29:56;100463.84;;;25.58;61.89
39449;BME280;25151;45.566;9.382;2023-10-08T04:32:29;100469.03;;;25.60;61.73
39449;BME280;25151;45.566;9.382;2023-10-08T04:35:05;100474.03;;;25.65;61.42
39449;BME280;25151;45.566;9.382;2023-10-08T04:37:38;100463.03;;;25.58;61.44
39449;BME280;25151;45.566;9.382;2023-10-08T04:40:16;100469.97;;;25.57;61.47
39449;BME280;25151;45.566;9.382;2023-10-08T04:42:53;100464.31;;;25.57;61.50
39449;BME280;25151;45.566;9.382;2023-10-08T04:45:21;100470.44;;;25.64;61.50
39449;BME280;25151;45.566;9.382;2023-10-08T04:47:57;100461.03;;;25.58;61.46
39449;BME280;25151;45.566;9.382;2023-10-08T04:50:25;100463.53;;;25.56;61.41
39449;BME280;25151;45.566;9.382;2023-10-08T04:52:59;100475.31;;;25.64;61.44
39449;BME280;25151;45.566;9.382;2023-10-08T04:55:30;100476.56;;;25.63;61.57
39449;BME280;25151;45.566;9.382;2023-10-08T04:57:57;100473.13;;;25.59;61.56
39449;BME280;25151;45.566;9.382;2023-10-08T05:00:31;100467.13;;;25.57;61.66
39449;BME280;25151;45.566;9.382;2023-10-08T05:03:09;100459.91;;;25.56;61.58
39449;BME280;25151;45.566;9.382;2023-10-08T05:05:46;100474.19;;;25.61;61.56
39449;BME280;25151;45.566;9.382;2023-10-08T05:08:37;100476.25;;;25.61;61.53
39449;BME280;25151;45.566;9.382;2023-10-08T05:11:26;100464.31;;;25.57;61.37
39449;BME280;25151;45.566;9.382;2023-10-08T05:14:17;100463.69;;;25.52;61.46
39449;BME280;25151;45.566;9.382;2023-10-08T05:17:06;100471.06;;;25.59;61.78
39449;BME280;25151;45.566;9.382;2023-10-08T05:20:02;100463.22;;;25.54;61.57
39449;BME280;25151;45.566;9.382;2023-10-08T05:22:29;100463.53;;;25.56;61.59
39449;BME280;25151;45.566;9.382;2023-10-08T05:25:15;100470.91;;;25.63;61.42
39449;BME280;25151;45.566;9.382;2023-10-08T05:27:51;100477.34;;;25.63;61.71
39449;BME280;25151;45.566;9.382;2023-10-08T05:30:33;100466.34;;;25.56;61.38
39449;BME280;25151;45.566;9.382;2023-10-08T05:33:21;100461.97;;;25.55;61.69
39449;BME280;25151;45.566;9.382;2023-10-08T05:36:10;100468.88;;;25.63;61.68
39449;BME280;25151;45.566;9.382;2023-10-08T05:38:49;100472.47;;;25.64;61.68
39449;BME280;25151;45.566;9.382;2023-10-08T05:41:32;100465.88;;;25.58;61.26
39449;BME280;25151;45.566;9.382;2023-10-08T05:44:11;100463.69;;;25.62;61.62
39449;BME280;25151;45.566;9.382;2023-10-08T05:47:06;100468.25;;;25.59;61.41
39449;BME280;25151;45.566;9.382;2023-10-08T05:49:53;100482.50;;;25.65;61.66
39449;BME280;25151;45.566;9.382;2023-10-08T05:52:45;100484.09;;;25.66;61.24
39449;BME280;25151;45.566;9.382;2023-10-08T05:55:28;100485.34;;;25.65;61.30
39449;BME280;25151;45.566;9.382;2023-10-08T05:58:04;100480.00;;;25.58;61.26
39449;BME280;25151;45.566;9.382;2023-10-08T06:00:45;100488.66;;;25.63;61.51
39449;BME280;25151;45.566;9.382;2023-10-08T06:03:37;100477.16;;;25.58;61.50
39449;BME280;25151;45.566;9.382;2023-10-08T06:06:21;100492.25;;;25.64;61.32
39449;BME280;25151;45.566;9.382;2023-10-08T06:08:52;100499.94;;;25.63;61.28
39449;BME280;25151;45.566;9.382;2023-10-08T06:11:43;100493.81;;;25.65;61.41
39449;BME280;25151;45.566;9.382;2023-10-08T06:14:16;100477.16;;;25.58;61.06
39449;BME280;25151;45.566;9.382;2023-10-08T06:17:01;100482.03;;;25.57;61.25
39449;BME280;25151;45.566;9.382;2023-10-08T06:20:09;100491.75;;;25.56;60.83
39449;BME280;25151;45.566;9.382;2023-10-08T06:22:39;100484.56;;;25.55;60.82
39449;BME280;25151;45.566;9.382;2023-10-08T06:25:12;100504.81;;;25.63;60.51
39449;BME280;25151;45.566;9.382;2023-10-08T06:27:45;100490.34;;;25.51;60.85
39449;BME280;25151;45.566;9.382;2023-10-08T06:30:13;100513.72;;;25.61;60.88
39449;BME280;25151;45.566;9.382;2023-10-08T06:32:48;100503.84;;;25.57;60.75
39449;BME280;25151;45.566;9.382;2023-10-08T06:35:17;100514.84;;;25.64;60.70
39449;BME280;25151;45.566;9.382;2023-10-08T06:37:54;100503.84;;;25.57;60.61
39449;BME280;25151;45.566;9.382;2023-10-08T06:40:21;100515.91;;;25.57;60.92
39449;BME280;25151;45.566;9.382;2023-10-08T06:43:27;100505.88;;;25.56;60.69
39449;BME280;25151;45.566;9.382;2023-10-08T06:45:54;100502.59;;;25.58;60.32
39449;BME280;25151;45.566;9.382;2023-10-08T06:48:25;100519.84;;;25.60;60.55
39449;BME280;25151;45.566;9.382;2023-10-08T06:50:56;100519.22;;;25.65;60.35
39449;BME280;25151;45.566;9.382;2023-10-08T06:53:34;100518.00;;;25.66;60.70
39449;BME280;25151;45.566;9.382;2023-10-08T06:56:04;100509.50;;;25.57;60.34
39449;BME280;25151;45.566;9.382;2023-10-08T06:58:31;100526.00;;;25.67;60.53
39449;BME280;25151;45.566;9.382;2023-10-08T07:01:00;100509.34;;;25.60;60.59
39449;BME280;25151;45.566;9.382;2023-10-08T07:03:36;100515.78;;;25.61;60.40
39449;BME280;25151;45.566;9.382;2023-10-08T07:06:04;100528.34;;;25.69;60.38
39449;BME280;25151;45.566;9.382;2023-10-08T07:08:43;100525.22;;;25.67;60.36
39449;BME280;25151;45.566;9.382;2023-10-08T07:11:22;100518.78;;;25.66;60.49
39449;BME280;25151;45.566;9.382;2023-10-08T07:13:51;100515.47;;;25.68;60.54
39449;BME280;25151;45.566;9.382;2023-10-08T07:16:19;100509.81;;;25.68;60.45
39449;BME280;25151;45.566;9.382;2023-10-08T07:18:52;100503.53;;;25.64;60.43
39449;BME280;25151;45.566;9.382;2023-10-08T07:21:28;100514.06;;;25.63;60.34
39449;BME280;25151;45.566;9.382;2023-10-08T07:23:57;100509.19;;;25.64;60.36
39449;BME280;25151;45.566;9.382;2023-10-08T07:26:30;100508.72;;;25.65;60.64
39449;BME280;25151;45.566;9.382;2023-10-08T07:29:05;100505.44;;;25.67;60.43
39449;BME280;25151;45.566;9.382;2023-10-08T07:31:39;100509.03;;;25.67;60.40
39449;BME280;25151;45.566;9.382;2023-10-08T07:34:12;100513.63;;;25.74;60.45
39449;BME280;25151;45.566;9.382;2023-10-08T07:36:46;100501.84;;;25.66;60.64
39449;BME280;25151;45.566;9.382;2023-10-08T07:39:14;100512.03;;;25.73;60.62
39449;BME280;25151;45.566;9.382;2023-10-08T07:42:14;100496.34;;;25.63;60.14
39449;BME280;25151;45.566;9.382;2023-10-08T07:44:42;100500.25;;;25.65;60.46
39449;BME280;25151;45.566;9.382;2023-10-08T07:47:13;100507.00;;;25.68;60.30
39449;BME280;25151;45.566;9.382;2023-10-08T07:49:41;100513.63;;;25.74;60.49
39449;BME280;25151;45.566;9.382;2023-10-08T07:52:09;100520.34;;;25.67;60.27
39449;BME280;25151;45.566;9.382;2023-10-08T07:54:41;100511.09;;;25.67;60.46
39449;BME280;25151;45.566;9.382;2023-10-08T07:57:13;100527.25;;;25.75;60.50
39449;BME280;25151;45.566;9.382;2023-10-08T07:59:52;100515.47;;;25.68;60.16
39449;BME280;25151;45.566;9.382;2023-10-08T08:02:30;100513.13;;;25.66;60.27
39449;BME280;25151;45.566;9.382;2023-10-08T08:04:59;100516.25;;;25.68;60.79
39449;BME280;25151;45.566;9.382;2023-10-08T08:07:31;100511.88;;;25.67;60.67
39449;BME280;25151;45.566;9.382;2023-10-08T08:10:06;100506.69;;;25.66;60.85
39449;BME280;25151;45.566;9.382;2023-10-08T08:12:40;100507.34;;;25.70;60.59
39449;BME280;25151;45.566;9.382;2023-10-08T08:15:13;100531.22;;;25.78;60.75
39449;BME280;25151;45.566;9.382;2023-10-08T08:17:44;100509.34;;;25.69;60.88
39449;BME280;25151;45.566;9.382;2023-10-08T08:20:13;100514.41;;;25.74;60.84
39449;BME280;25151;45.566;9.382;2023-10-08T08:22:49;100504.81;;;25.72;60.87
39449;BME280;25151;45.566;9.382;2023-10-08T08:25:17;100524.63;;;25.81;60.67
39449;BME280;25151;45.566;9.382;2023-10-08T08:28:00;100515.19;;;25.75;61.03
39449;BME280;25151;45.566;9.382;2023-10-08T08:30:27;100510.47;;;25.72;60.84
39449;BME280;25151;45.566;9.382;2023-10-08T08:32:54;100509.81;;;25.77;60.67
39449;BME280;25151;45.566;9.382;2023-10-08T08:35:22;100508.63;;;25.78;60.89
39449;BME280;25151;45.566;9.382;2023-10-08T08:37:52;100515.22;;;25.84;60.82
39449;BME280;25151;45.566;9.382;2023-10-08T08:40:19;100519.59;;;25.85;61.33
39449;BME280;25151;45.566;9.382;2023-10-08T08:42:51;100509.09;;;25.86;61.21
39449;BME280;25151;45.566;9.382;2023-10-08T08:45:23;100494.78;;;25.71;61.13
39449;BME280;25151;45.566;9.382;2023-10-08T08:47:52;100498.88;;;25.79;61.24
39449;BME280;25151;45.566;9.382;2023-10-08T08:50:19;100504.25;;;25.86;61.03
39449;BME280;25151;45.566;9.382;2023-10-08T08:52:49;100509.41;;;25.88;61.08
39449;BME280;25151;45.566;9.382;2023-10-08T08:55:16;100511.13;;;25.85;61.03
39449;BME280;25151;45.566;9.382;2023-10-08T08:57:52;100506.44;;;25.82;61.04
39449;BME280;25151;45.566;9.382;2023-10-08T09:00:21;100508.47;;;25.82;61.21
39449;BME280;25151;45.566;9.382;2023-10-08T09:02:54;100496.06;;;25.79;61.04
39449;BME280;25151;45.566;9.382;2023-10-08T09:05:27;100512.22;;;25.88;61.17
39449;BME280;25151;45.566;9.382;2023-10-08T09:08:03;100493.09;;;25.83;61.05
39449;BME280;25151;45.566;9.382;2023-10-08T09:10:34;100485.22;;;25.78;60.88
39449;BME280;25151;45.566;9.382;2023-10-08T09:13:05;100501.41;;;25.86;60.47
39449;BME280;25151;45.566;9.382;2023-10-08T09:15:38;100497.25;;;25.60;59.78
39449;BME280;25151;45.566;9.382;2023-10-08T09:18:09;100511.03;;;25.48;59.19
39449;BME280;25151;45.566;9.382;2023-10-08T09:20:40;100497.34;;;25.29;58.58
39449;BME280;25151;45.566;9.382;2023-10-08T09:23:13;100510.25;;;25.39;57.68
39449;BME280;25151;45.566;9.382;2023-10-08T09:25:45;100509.78;;;25.40;57.62
39449;BME280;25151;45.566;9.382;2023-10-08T09:28:29;100498.47;;;25.31;57.19
39449;BME280;25151;45.566;9.382;2023-10-08T09:30:59;100497.06;;;25.36;56.64
39449;BME280;25151;45.566;9.382;2023-10-08T09:33:28;100499.75;;;25.39;56.78
39449;BME280;25151;45.566;9.382;2023-10-08T09:35:58;100507.59;;;25.44;56.41
39449;BME280;25151;45.566;9.382;2023-10-08T09:38:31;100491.91;;;25.34;55.86
39449;BME280;25151;45.566;9.382;2023-10-08T09:41:00;100479.50;;;25.32;55.80
39449;BME280;25151;45.566;9.382;2023-10-08T09:43:30;100482.03;;;25.39;55.36
39449;BME280;25151;45.566;9.382;2023-10-08T09:46:23;100484.06;;;25.38;55.14
39449;BME280;25151;45.566;9.382;2023-10-08T09:48:57;100480.91;;;25.36;54.95
39449;BME280;25151;45.566;9.382;2023-10-08T09:51:29;100478.72;;;25.40;54.81
39449;BME280;25151;45.566;9.382;2023-10-08T09:54:20;100473.38;;;25.33;54.87
39449;BME280;25151;45.566;9.382;2023-10-08T09:56:51;100490.34;;;25.42;54.41
39449;BME280;25151;45.566;9.382;2023-10-08T09:59:19;100490.13;;;24.87;58.91
39449;BME280;25151;45.566;9.382;2023-10-08T10:01:46;100498.19;;;24.67;59.48
39449;BME280;25151;45.566;9.382;2023-10-08T10:04:25;100484.34;;;24.60;59.41
39449;BME280;25151;45.566;9.382;2023-10-08T10:06:55;100490.91;;;24.57;59.45
39449;BME280;25151;45.566;9.382;2023-10-08T10:09:25;100496.22;;;24.54;59.49
39449;BME280;25151;45.566;9.382;2023-10-08T10:11:54;100490.13;;;24.56;59.41
39449;BME280;25151;45.566;9.382;2023-10-08T10:14:29;100481.00;;;24.52;59.42
39449;BME280;25151;45.566;9.382;2023-10-08T10:17:10;100486.97;;;24.54;59.55
39449;BME280;25151;45.566;9.382;2023-10-08T10:19:40;100481.00;;;24.52;59.57
39449;BME280;25151;45.566;9.382;2023-10-08T10:22:14;100479.91;;;24.49;59.48
39449;BME280;25151;45.566;9.382;2023-10-08T10:24:42;100479.75;;;24.53;59.64
39449;BME280;25151;45.566;9.382;2023-10-08T10:27:15;100490.25;;;24.52;59.50
39449;BME280;25151;45.566;9.382;2023-10-08T10:29:44;100481.16;;;24.48;59.20
39449;BME280;25151;45.566;9.382;2023-10-08T10:32:12;100484.75;;;24.49;59.51
39449;BME280;25151;45.566;9.382;2023-10-08T10:34:45;100474.53;;;24.42;59.47
39449;BME280;25151;45.566;9.382;2023-10-08T10:37:18;100475.47;;;24.39;59.39
39449;BME280;25151;45.566;9.382;2023-10-08T10:39:57;100474.53;;;24.42;59.44
39449;BME280;25151;45.566;9.382;2023-10-08T10:42:26;100472.97;;;24.41;59.00
39449;BME280;25151;45.566;9.382;2023-10-08T10:44:54;100463.25;;;24.42;59.37
39449;BME280;25151;45.566;9.382;2023-10-08T10:47:22;100467.66;;;24.43;59.20
39449;BME280;25151;45.566;9.382;2023-10-08T10:49:52;100473.75;;;24.42;59.26
39449;BME280;25151;45.566;9.382;2023-10-08T10:52:29;100460.91;;;24.41;59.56
39449;BME280;25151;45.566;9.382;2023-10-08T10:55:04;100455.25;;;24.41;59.08
39449;BME280;25151;45.566;9.382;2023-10-08T10:57:40;100455.38;;;24.37;59.19
39449;BME280;25151;45.566;9.382;2023-10-08T11:00:08;100453.47;;;24.34;59.13
39449;BME280;25151;45.566;9.382;2023-10-08T11:02:53;100452.81;;;24.30;58.93
39449;BME280;25151;45.566;9.382;2023-10-08T11:05:26;100451.25;;;24.29;59.05
39449;BME280;25151;45.566;9.382;2023-10-08T11:07:58;100447.78;;;24.25;58.78
39449;BME280;25151;45.566;9.382;2023-10-08T11:10:36;100444.63;;;24.23;58.58
39449;BME280;25151;45.566;9.382;2023-10-08T11:13:05;100443.06;;;24.22;58.40
39449;BME280;25151;45.566;9.382;2023-10-08T11:15:40;100439.59;;;24.18;58.51
39449;BME280;25151;45.566;9.382;2023-10-08T11:18:09;100431.13;;;24.18;58.27
39449;BME280;25151;45.566;9.382;2023-10-08T11:20:35;100435.19;;;24.17;58.28
39449;BME280;25151;45.566;9.382;2023-10-08T11:23:31;100428.78;;;24.16;58.11
39449;BME280;25151;45.566;9.382;2023-10-08T11:26:00;100420.78;;;24.15;58.03
39449;BME280;25151;45.566;9.382;2023-10-08T11:28:35;100426.09;;;24.13;58.13
39449;BME280;25151;45.566;9.382;2023-10-08T11:31:09;100407.63;;;24.12;57.83
39449;BME280;25151;45.566;9.382;2023-10-08T11:33:40;100399.22;;;23.99;57.84
39449;BME280;25151;45.566;9.382;2023-10-08T11:36:08;100405.72;;;24.09;57.69
39449;BME280;25151;45.566;9.382;2023-10-08T11:38:54;100413.25;;;24.12;57.78
39449;BME280;25151;45.566;9.382;2023-10-08T11:41:28;100396.94;;;24.07;57.53
39449;BME280;25151;45.566;9.382;2023-10-08T11:44:09;100403.03;;;24.05;57.63
39449;BME280;25151;45.566;9.382;2023-10-08T11:46:38;100397.06;;;24.03;57.32
39449;BME280;25151;45.566;9.382;2023-10-08T11:49:11;100398.97;;;24.06;57.40
39449;BME280;25151;45.566;9.382;2023-10-08T11:51:51;100386.59;;;24.03;57.12
39449;BME280;25151;45.566;9.382;2023-10-08T11:54:17;100391.44;;;24.03;57.25
39449;BME280;25151;45.566;9.382;2023-10-08T11:56:45;100397.53;;;24.01;57.08
39449;BME280;25151;45.566;9.382;2023-10-08T11:59:13;100390.34;;;24.00;56.85
39449;BME280;25151;45.566;9.382;2023-10-08T12:01:39;100381.88;;;24.00;56.87
39449;BME280;25151;45.566;9.382;2023-10-08T12:04:09;100382.84;;;24.07;57.07
39449;BME280;25151;45.566;9.382;2023-10-08T12:06:41;100366.00;;;24.16;57.23
39449;BME280;25151;45.566;9.382;2023-10-08T12:09:13;100375.44;;;24.22;57.11
39449;BME280;25151;45.566;9.382;2023-10-08T12:11:40;100365.28;;;24.24;56.91
39449;BME280;25151;45.566;9.382;2023-10-08T12:14:07;100369.53;;;24.29;57.19
39449;BME280;25151;45.566;9.382;2023-10-08T12:16:33;100359.81;;;24.30;57.18
39449;BME280;25151;45.566;9.382;2023-10-08T12:19:02;100361.72;;;24.33;57.39
39449;BME280;25151;45.566;9.382;2023-10-08T12:21:41;100363.59;;;24.36;57.52
39449;BME280;25151;45.566;9.382;2023-10-08T12:24:09;100359.22;;;24.35;57.43
39449;BME280;25151;45.566;9.382;2023-10-08T12:26:39;100354.03;;;24.34;57.60
39449;BME280;25151;45.566;9.382;2023-10-08T12:29:14;100359.09;;;24.39;57.57
39449;BME280;25151;45.566;9.382;2023-10-08T12:31:42;100357.88;;;24.40;57.75
39449;BME280;25151;45.566;9.382;2023-10-08T12:34:12;100343.78;;;24.40;57.71
39449;BME280;25151;45.566;9.382;2023-10-08T12:36:38;100338.91;;;24.40;57.79
39449;BME280;25151;45.566;9.382;2023-10-08T12:39:05;100339.22;;;24.42;57.62
39449;BME280;25151;45.566;9.382;2023-10-08T12:41:53;100344.06;;;24.42;57.70
39449;BME280;25151;45.566;9.382;2023-10-08T12:44:19;100336.41;;;24.42;57.61
39449;BME280;25151;45.566;9.382;2023-10-08T12:46:45;100339.22;;;24.42;57.86
39449;BME280;25151;45.566;9.382;2023-10-08T12:49:14;100340.81;;;24.43;58.10
39449;BME280;25151;45.566;9.382;2023-10-08T12:51:40;100332.66;;;24.45;57.89
39449;BME280;25151;45.566;9.382;2023-10-08T12:54:07;100327.03;;;24.45;58.14
39449;BME280;25151;45.566;9.382;2023-10-08T12:56:34;100327.81;;;24.46;58.09
39449;BME280;25151;45.566;9.382;2023-10-08T12:59:19;100322.94;;;24.46;58.08
39449;BME280;25151;45.566;9.382;2023-10-08T13:01:49;100318.91;;;24.47;58.05
39449;BME280;25151;45.566;9.382;2023-10-08T13:04:28;100312.94;;;24.45;58.18
39449;BME280;25151;45.566;9.382;2023-10-08T13:07:05;100310.25;;;24.42;58.32
39449;BME280;25151;45.566;9.382;2023-10-08T13:09:35;100307.63;;;24.47;58.23
39449;BME280;25151;45.566;9.382;2023-10-08T13:12:09;100302.44;;;24.46;58.24
39449;BME280;25151;45.566;9.382;2023-10-08T13:14:38;100296.50;;;24.44;58.29
39449;BME280;25151;45.566;9.382;2023-10-08T13:17:06;100295.53;;;24.47;58.56
39449;BME280;25151;45.566;9.382;2023-10-08T13:19:37;100293.84;;;24.49;58.52
39449;BME280;25151;45.566;9.382;2023-10-08T13:22:05;100301.03;;;24.50;58.28
39449;BME280;25151;45.566;9.382;2023-10-08T13:24:37;100277.84;;;24.46;58.40
39449;BME280;25151;45.566;9.382;2023-10-08T13:27:12;100286.16;;;24.50;58.36
39449;BME280;25151;45.566;9.382;2023-10-08T13:29:41;100284.59;;;24.49;58.44